Time;durP1;ratioP1;P1;durP2;ratioP2;P2;SDS_P1;SDS_P2;PMS_P1;PMS_P2;Temp;Humidity;BMP_temperature;BMP_pressure;BME280_temperature;BME280_humidity;BME280_pressure;Samples;Min_cycle;Max_cycle;Signal;HPM_P1;HPM_P2
2021/08/03 00:00:24;;;;;;;33.08;19.77;;;;;;;;;;5032571;28;20040;-57
2021/08/03 00:02:50;;;;;;;33.90;21.02;;;;;;;;;;5033650;28;20033;-57
2021/08/03 00:05:19;;;;;;;36.28;20.80;;;;;;;;;;5033498;28;20041;-57
2021/08/03 00:07:47;;;;;;;32.78;19.05;;;;;;;;;;5033615;28;20118;-57
2021/08/03 00:10:17;;;;;;;37.28;20.42;;;;;;;;;;5035303;28;20048;-57
2021/08/03 00:12:48;;;;;;;35.30;20.20;;;;;;;;;;5033987;28;20033;-58
2021/08/03 00:15:18;;;;;;;35.40;20.83;;;;;;;;;;5035265;28;20040;-56
2021/08/03 00:17:43;;;;;;;32.80;20.00;;;;;;;;;;5034628;28;20581;-60
2021/08/03 00:20:10;;;;;;;33.80;19.85;;;;;;;;;;5033748;28;20044;-58
2021/08/03 00:22:36;;;;;;;32.65;20.73;;;;;;;;;;5034300;28;20047;-60
2021/08/03 00:25:02;;;;;;;30.70;19.98;;;;;;;;;;5034258;28;20052;-60
2021/08/03 00:27:28;;;;;;;30.33;19.17;;;;;;;;;;5033320;28;20047;-60
2021/08/03 00:29:55;;;;;;;34.75;20.58;;;;;;;;;;5034922;28;21741;-59
2021/08/03 00:32:20;;;;;;;28.95;18.33;;;;;;;;;;5032290;28;20063;-59
2021/08/03 00:34:46;;;;;;;31.20;19.67;;;;;;;;;;5034519;28;20053;-60
2021/08/03 00:37:12;;;;;;;32.67;20.05;;;;;;;;;;5033688;28;20037;-59
2021/08/03 00:39:38;;;;;;;30.38;19.23;;;;;;;;;;5033547;28;20099;-60
2021/08/03 00:42:04;;;;;;;30.88;18.67;;;;;;;;;;5047714;28;20037;-58
2021/08/03 00:44:44;;;;;;;32.88;18.85;;;;;;;;;;5051170;28;20036;-58
2021/08/03 00:47:11;;;;;;;33.58;20.48;;;;;;;;;;5053202;28;20045;-57
2021/08/03 00:49:37;;;;;;;31.30;20.15;;;;;;;;;;5049526;28;20056;-59
2021/08/03 00:52:03;;;;;;;39.65;20.67;;;;;;;;;;5039095;28;20075;-58
2021/08/03 00:54:29;;;;;;;41.45;21.48;;;;;;;;;;5043569;28;20131;-56
2021/08/03 00:56:55;;;;;;;30.25;19.10;;;;;;;;;;5034035;28;20051;-57
2021/08/03 00:59:21;;;;;;;34.53;20.55;;;;;;;;;;5032245;28;20159;-54
2021/08/03 01:01:47;;;;;;;32.42;19.48;;;;;;;;;;5035168;28;20099;-57
2021/08/03 01:04:17;;;;;;;33.05;21.30;;;;;;;;;;5033140;28;20107;-56
2021/08/03 01:07:01;;;;;;;32.72;20.15;;;;;;;;;;5033589;28;20409;-56
2021/08/03 01:09:37;;;;;;;29.35;19.52;;;;;;;;;;5028117;28;20037;-57
2021/08/03 01:12:09;;;;;;;28.92;18.15;;;;;;;;;;5037209;28;20050;-55
2021/08/03 01:14:35;;;;;;;;;;;;;;;;;;5039351;28;20045;-54
2021/08/03 01:17:16;;;;;;;30.38;19.67;;;;;;;;;;5035700;28;20301;-56
2021/08/03 01:19:48;;;;;;;37.35;21.48;;;;;;;;;;5054103;28;20129;-54
2021/08/03 01:22:32;;;;;;;32.83;20.02;;;;;;;;;;5036583;28;20127;-56
2021/08/03 01:25:16;;;;;;;33.53;19.40;;;;;;;;;;5036984;28;20060;-56
2021/08/03 01:27:45;;;;;;;31.58;19.25;;;;;;;;;;5052282;28;20048;-57
2021/08/03 01:30:11;;;;;;;33.90;19.10;;;;;;;;;;5036168;28;20218;-57
2021/08/03 01:32:41;;;;;;;31.63;20.10;;;;;;;;;;5035285;28;20065;-57
2021/08/03 01:35:07;;;;;;;34.20;20.80;;;;;;;;;;5038279;28;20037;-57
2021/08/03 01:37:34;;;;;;;36.00;21.20;;;;;;;;;;5018032;28;20044;-57
2021/08/03 01:40:03;;;;;;;35.25;20.92;;;;;;;;;;5046001;28;20421;-57
2021/08/03 01:42:30;;;;;;;32.85;19.48;;;;;;;;;;5034781;28;20051;-59
2021/08/03 01:44:57;;;;;;;32.72;20.73;;;;;;;;;;5036900;28;20099;-57
2021/08/03 01:47:24;;;;;;;31.33;19.67;;;;;;;;;;5033416;28;20041;-56
2021/08/03 01:49:50;;;;;;;32.75;19.92;;;;;;;;;;5037439;28;20084;-56
2021/08/03 01:52:17;;;;;;;37.80;20.63;;;;;;;;;;5036177;28;20067;-58
2021/08/03 01:54:45;;;;;;;30.10;18.95;;;;;;;;;;5036677;28;20068;-57
2021/08/03 01:57:12;;;;;;;35.05;19.88;;;;;;;;;;5036724;28;20725;-56
2021/08/03 01:59:38;;;;;;;31.02;19.48;;;;;;;;;;5036212;28;21732;-55
2021/08/03 02:02:04;;;;;;;32.00;20.42;;;;;;;;;;5034503;28;20037;-57
2021/08/03 02:04:30;;;;;;;30.38;19.75;;;;;;;;;;5035209;28;20033;-56
2021/08/03 02:06:56;;;;;;;34.40;20.65;;;;;;;;;;5040775;28;20040;-57
2021/08/03 02:09:22;;;;;;;30.15;19.20;;;;;;;;;;5038130;28;20478;-58
2021/08/03 02:11:49;;;;;;;31.17;20.10;;;;;;;;;;5035549;28;20043;-57
2021/08/03 02:14:16;;;;;;;33.72;20.45;;;;;;;;;;5036299;28;20588;-57
2021/08/03 02:16:42;;;;;;;31.88;19.33;;;;;;;;;;5036305;28;20063;-56
2021/08/03 02:19:08;;;;;;;35.28;20.77;;;;;;;;;;5033242;28;20044;-55
2021/08/03 02:21:34;;;;;;;30.90;19.95;;;;;;;;;;5034310;28;20033;-57
2021/08/03 02:24:00;;;;;;;31.75;19.42;;;;;;;;;;5036887;28;20052;-57
2021/08/03 02:26:28;;;;;;;32.83;20.25;;;;;;;;;;5036591;28;20087;-54
2021/08/03 02:28:54;;;;;;;38.13;20.67;;;;;;;;;;5033536;28;20033;-55
2021/08/03 02:31:23;;;;;;;33.67;20.58;;;;;;;;;;5032982;28;20049;-56
2021/08/03 02:33:52;;;;;;;36.65;21.02;;;;;;;;;;5035380;28;20041;-57
2021/08/03 02:36:21;;;;;;;32.97;20.55;;;;;;;;;;5034030;28;20509;-54
2021/08/03 02:38:53;;;;;;;33.28;20.33;;;;;;;;;;5034381;28;20410;-57
2021/08/03 02:41:31;;;;;;;32.80;20.60;;;;;;;;;;5034231;28;20041;-57
2021/08/03 02:44:00;;;;;;;36.33;21.42;;;;;;;;;;5035473;28;20045;-58
2021/08/03 02:46:27;;;;;;;34.17;19.80;;;;;;;;;;5035912;28;20128;-58
2021/08/03 02:49:06;;;;;;;36.25;20.05;;;;;;;;;;5035942;28;20131;-56
2021/08/03 02:51:34;;;;;;;35.40;20.45;;;;;;;;;;5045495;28;20434;-57
2021/08/03 02:54:04;;;;;;;33.20;21.80;;;;;;;;;;5051648;28;20059;-56
2021/08/03 02:56:31;;;;;;;38.85;23.10;;;;;;;;;;5037109;28;20047;-61
2021/08/03 02:59:09;;;;;;;36.47;22.60;;;;;;;;;;5037578;28;20037;-56
2021/08/03 03:01:38;;;;;;;38.78;21.38;;;;;;;;;;5035580;28;20514;-56
2021/08/03 03:04:09;;;;;;;34.05;20.05;;;;;;;;;;5037262;28;20041;-57
2021/08/03 03:06:38;;;;;;;33.97;21.02;;;;;;;;;;5035866;28;20144;-58
2021/08/03 03:09:04;;;;;;;37.22;21.33;;;;;;;;;;5071136;28;20032;-56
2021/08/03 03:11:31;;;;;;;37.08;20.83;;;;;;;;;;5035856;28;20062;-56
2021/08/03 03:13:58;;;;;;;30.85;20.02;;;;;;;;;;5037008;28;20041;-58
2021/08/03 03:16:27;;;;;;;35.22;20.80;;;;;;;;;;5038797;28;20036;-60
2021/08/03 03:18:56;;;;;;;34.10;20.60;;;;;;;;;;5039520;28;20072;-58
2021/08/03 03:21:23;;;;;;;36.97;21.48;;;;;;;;;;5022277;28;20068;-58
2021/08/03 03:23:50;;;;;;;29.48;19.60;;;;;;;;;;5041897;28;20575;-56
2021/08/03 03:26:18;;;;;;;37.70;20.88;;;;;;;;;;5037323;28;20114;-58
2021/08/03 03:28:46;;;;;;;40.20;21.33;;;;;;;;;;5049207;28;20120;-58
2021/08/03 03:31:13;;;;;;;34.75;20.80;;;;;;;;;;5033633;28;20036;-57
2021/08/03 03:33:40;;;;;;;33.22;20.83;;;;;;;;;;5035663;28;20133;-57
2021/08/03 03:36:11;;;;;;;36.47;20.20;;;;;;;;;;5038008;28;20041;-58
2021/08/03 03:38:37;;;;;;;37.05;21.55;;;;;;;;;;5029597;28;20041;-57
2021/08/03 03:41:09;;;;;;;36.50;22.42;;;;;;;;;;5067194;28;20500;-59
2021/08/03 03:43:35;;;;;;;37.08;21.75;;;;;;;;;;5036821;28;20041;-58
2021/08/03 03:46:06;;;;;;;35.15;21.08;;;;;;;;;;5035456;28;20049;-57
2021/08/03 03:48:33;;;;;;;34.20;20.85;;;;;;;;;;5033311;28;20533;-57
2021/08/03 03:51:01;;;;;;;30.33;21.02;;;;;;;;;;5035855;28;20125;-56
2021/08/03 03:53:35;;;;;;;35.67;21.17;;;;;;;;;;5032732;28;20475;-57
2021/08/03 03:56:19;;;;;;;36.58;21.02;;;;;;;;;;5035933;28;20041;-60
2021/08/03 03:59:15;;;;;;;36.08;22.25;;;;;;;;;;5000885;28;20090;-57
2021/08/03 04:01:40;;;;;;;34.00;20.77;;;;;;;;;;5044519;28;20115;-58
2021/08/03 04:04:09;;;;;;;36.10;21.80;;;;;;;;;;5060493;28;20032;-58
2021/08/03 04:06:37;;;;;;;38.13;22.27;;;;;;;;;;5027432;28;20113;-57
2021/08/03 04:09:03;;;;;;;41.00;21.98;;;;;;;;;;5014451;28;20405;-57
2021/08/03 04:11:29;;;;;;;36.33;21.25;;;;;;;;;;5016160;28;20231;-57
2021/08/03 04:13:58;;;;;;;35.63;21.40;;;;;;;;;;5042480;28;20041;-54
2021/08/03 04:16:28;;;;;;;36.35;21.27;;;;;;;;;;5022977;28;20131;-59
2021/08/03 04:19:30;;;;;;;36.95;21.58;;;;;;;;;;5027727;28;20597;-56
2021/08/03 04:21:57;;;;;;;38.03;21.63;;;;;;;;;;4974985;28;20152;-57
2021/08/03 04:24:25;;;;;;;37.58;21.58;;;;;;;;;;4991939;28;20487;-59
2021/08/03 04:26:51;;;;;;;35.55;21.27;;;;;;;;;;4992466;28;20057;-57
2021/08/03 04:29:17;;;;;;;36.40;21.63;;;;;;;;;;4993980;28;20034;-55
2021/08/03 04:31:43;;;;;;;38.60;22.27;;;;;;;;;;4993101;28;20567;-58
2021/08/03 04:34:09;;;;;;;33.70;20.88;;;;;;;;;;4990707;28;20049;-57
2021/08/03 04:36:41;;;;;;;35.85;20.92;;;;;;;;;;4992421;28;20046;-59
2021/08/03 04:39:16;;;;;;;33.47;21.30;;;;;;;;;;4944531;28;20918;-56
2021/08/03 04:41:42;;;;;;;37.42;21.40;;;;;;;;;;4974576;28;20105;-56
2021/08/03 04:44:08;;;;;;;35.75;20.17;;;;;;;;;;4992974;28;20471;-57
2021/08/03 04:46:33;;;;;;;33.97;21.80;;;;;;;;;;4975057;28;20057;-58
2021/08/03 04:49:00;;;;;;;35.72;20.98;;;;;;;;;;4993439;28;20042;-57
2021/08/03 04:51:25;;;;;;;33.22;20.75;;;;;;;;;;4992538;28;20107;-58
2021/08/03 04:53:51;;;;;;;40.33;21.95;;;;;;;;;;4998075;28;20030;-58
2021/08/03 04:56:20;;;;;;;35.38;21.05;;;;;;;;;;4999071;28;20046;-58
2021/08/03 04:58:46;;;;;;;34.83;20.17;;;;;;;;;;4993812;28;20042;-56
2021/08/03 05:01:12;;;;;;;37.75;22.00;;;;;;;;;;5010135;28;20077;-53
2021/08/03 05:03:38;;;;;;;37.95;22.10;;;;;;;;;;4978107;28;20559;-58
2021/08/03 05:06:36;;;;;;;36.92;21.42;;;;;;;;;;4991762;28;20118;-57
2021/08/03 05:09:02;;;;;;;37.40;21.13;;;;;;;;;;4927060;28;20038;-57
2021/08/03 05:11:27;;;;;;;35.97;22.02;;;;;;;;;;4997607;28;20053;-57
2021/08/03 05:13:53;;;;;;;35.08;21.65;;;;;;;;;;5038454;28;20079;-57
2021/08/03 05:16:19;;;;;;;38.95;22.05;;;;;;;;;;5059082;28;20059;-57
2021/08/03 05:18:45;;;;;;;35.78;20.98;;;;;;;;;;5049880;28;20032;-57
2021/08/03 05:21:11;;;;;;;37.15;21.20;;;;;;;;;;5046667;28;20099;-57
2021/08/03 05:23:43;;;;;;;35.38;20.80;;;;;;;;;;5039156;28;20037;-58
2021/08/03 05:26:17;;;;;;;37.58;21.67;;;;;;;;;;5035195;28;20053;-59
2021/08/03 05:31:36;;;;;;;;;;;;;;;;;;5033038;28;20056;-58
2021/08/03 05:34:03;;;;;;;36.67;20.70;;;;;;;;;;5034643;28;19916;-57
2021/08/03 05:36:29;;;;;;;36.83;21.90;;;;;;;;;;5026948;28;20301;-58
2021/08/03 05:38:54;;;;;;;37.47;20.48;;;;;;;;;;5037248;28;20041;-58
2021/08/03 05:41:40;;;;;;;40.78;21.42;;;;;;;;;;5028890;28;20056;-58
2021/08/03 05:44:06;;;;;;;34.80;20.98;;;;;;;;;;5044455;28;20199;-58
2021/08/03 05:46:32;;;;;;;35.95;21.33;;;;;;;;;;5029234;28;20053;-55
2021/08/03 05:48:58;;;;;;;36.47;20.67;;;;;;;;;;5026291;28;20041;-57
2021/08/03 05:51:23;;;;;;;40.90;20.55;;;;;;;;;;5025438;28;20041;-57
2021/08/03 05:53:49;;;;;;;35.15;21.10;;;;;;;;;;5023351;28;20893;-59
2021/08/03 05:56:26;;;;;;;35.92;21.55;;;;;;;;;;5020465;28;20041;-60
2021/08/03 05:58:52;;;;;;;34.28;20.33;;;;;;;;;;5009297;28;20768;-58
2021/08/03 06:01:21;;;;;;;34.17;19.75;;;;;;;;;;5037277;28;20033;-67
2021/08/03 06:03:47;;;;;;;33.30;20.67;;;;;;;;;;5039027;28;20046;-58
2021/08/03 06:06:14;;;;;;;35.50;21.10;;;;;;;;;;5030698;28;20045;-57
2021/08/03 06:08:41;;;;;;;37.92;20.73;;;;;;;;;;5033116;28;20074;-58
2021/08/03 06:11:08;;;;;;;34.47;20.98;;;;;;;;;;5025163;28;20041;-56
2021/08/03 06:13:35;;;;;;;34.75;20.92;;;;;;;;;;5035066;28;20041;-57
2021/08/03 06:16:02;;;;;;;37.88;21.17;;;;;;;;;;5033815;28;20078;-57
2021/08/03 06:18:29;;;;;;;37.15;21.17;;;;;;;;;;5024890;28;20052;-57
2021/08/03 06:20:56;;;;;;;35.00;21.27;;;;;;;;;;5033275;28;20041;-56
2021/08/03 06:23:22;;;;;;;37.60;21.60;;;;;;;;;;5043489;28;20041;-58
2021/08/03 06:25:49;;;;;;;37.45;21.13;;;;;;;;;;5058922;28;20144;-58
2021/08/03 06:28:19;;;;;;;30.92;20.38;;;;;;;;;;5058573;28;20094;-57
2021/08/03 06:30:47;;;;;;;34.72;20.55;;;;;;;;;;5056389;28;20055;-54
2021/08/03 06:33:15;;;;;;;33.78;20.27;;;;;;;;;;5059203;28;20058;-56
2021/08/03 06:35:40;;;;;;;32.70;20.35;;;;;;;;;;5058400;28;20086;-58
2021/08/03 06:38:06;;;;;;;41.05;21.92;;;;;;;;;;5036419;28;20120;-57
2021/08/03 06:40:32;;;;;;;36.13;20.95;;;;;;;;;;5041031;28;20615;-57
2021/08/03 06:43:07;;;;;;;35.88;20.65;;;;;;;;;;5060108;28;20045;-57
2021/08/03 06:45:33;;;;;;;30.58;19.73;;;;;;;;;;5059943;28;20086;-56
2021/08/03 06:48:02;;;;;;;32.60;20.27;;;;;;;;;;5059424;28;20881;-57
2021/08/03 06:50:32;;;;;;;33.05;19.95;;;;;;;;;;5057098;28;20634;-58
2021/08/03 06:52:59;;;;;;;35.33;20.60;;;;;;;;;;5060234;28;20079;-58
2021/08/03 06:55:29;;;;;;;37.20;21.55;;;;;;;;;;5060163;28;20029;-57
2021/08/03 06:57:58;;;;;;;34.13;20.10;;;;;;;;;;5057947;28;20047;-57
2021/08/03 07:00:26;;;;;;;33.28;20.50;;;;;;;;;;5056904;28;20032;-57
2021/08/03 07:02:52;;;;;;;34.60;19.50;;;;;;;;;;5057704;28;20978;-57
2021/08/03 07:05:19;;;;;;;37.22;21.65;;;;;;;;;;5057325;28;20143;-57
2021/08/03 07:07:45;;;;;;;36.22;20.75;;;;;;;;;;5071506;28;20512;-58
2021/08/03 07:10:12;;;;;;;32.53;20.00;;;;;;;;;;5055846;28;20528;-58
2021/08/03 07:12:42;;;;;;;33.47;20.92;;;;;;;;;;5056103;28;20509;-58
2021/08/03 07:15:08;;;;;;;37.03;20.20;;;;;;;;;;5057663;28;20036;-58
2021/08/03 07:17:35;;;;;;;36.53;21.50;;;;;;;;;;5056104;28;20135;-58
2021/08/03 07:20:01;;;;;;;36.20;21.50;;;;;;;;;;5056500;28;20037;-58
2021/08/03 07:22:27;;;;;;;35.72;21.33;;;;;;;;;;5056031;28;20037;-59
2021/08/03 07:24:53;;;;;;;37.50;21.95;;;;;;;;;;5057242;28;20059;-59
2021/08/03 07:27:19;;;;;;;34.95;21.08;;;;;;;;;;5054747;28;20127;-58
2021/08/03 07:29:45;;;;;;;35.65;21.45;;;;;;;;;;5057264;28;20521;-59
2021/08/03 07:32:12;;;;;;;37.45;22.85;;;;;;;;;;5057163;28;20036;-57
2021/08/03 07:34:40;;;;;;;38.53;22.25;;;;;;;;;;5056439;28;20048;-58
2021/08/03 07:37:06;;;;;;;36.75;21.00;;;;;;;;;;5057756;28;20037;-59
2021/08/03 07:39:33;;;;;;;44.63;22.23;;;;;;;;;;5035481;28;20543;-58
2021/08/03 07:41:58;;;;;;;34.17;21.63;;;;;;;;;;5055324;28;20047;-59
2021/08/03 07:44:25;;;;;;;33.08;21.95;;;;;;;;;;5044020;28;20033;-58
2021/08/03 07:46:51;;;;;;;35.78;20.92;;;;;;;;;;5055683;28;20098;-59
2021/08/03 07:49:17;;;;;;;39.00;22.92;;;;;;;;;;5043396;28;20037;-58
2021/08/03 07:51:43;;;;;;;38.65;21.73;;;;;;;;;;5054618;28;20080;-59
2021/08/03 07:54:09;;;;;;;34.55;21.20;;;;;;;;;;5056755;28;20098;-58
2021/08/03 07:56:35;;;;;;;35.88;21.75;;;;;;;;;;5055302;28;20040;-56
2021/08/03 07:59:01;;;;;;;39.20;22.88;;;;;;;;;;5056977;28;20859;-58
2021/08/03 08:01:27;;;;;;;36.38;22.70;;;;;;;;;;5056182;28;20064;-56
2021/08/03 08:03:53;;;;;;;37.05;21.88;;;;;;;;;;5055850;28;20545;-57
2021/08/03 08:06:19;;;;;;;36.42;22.75;;;;;;;;;;5055022;28;20604;-57
2021/08/03 08:08:44;;;;;;;40.42;21.45;;;;;;;;;;5055507;28;20083;-57
2021/08/03 08:11:11;;;;;;;35.25;22.17;;;;;;;;;;5055927;28;20040;-57
2021/08/03 08:13:37;;;;;;;35.80;21.55;;;;;;;;;;5054997;28;20036;-57
2021/08/03 08:16:03;;;;;;;38.85;22.77;;;;;;;;;;5055240;28;20041;-57
2021/08/03 08:18:29;;;;;;;38.95;21.77;;;;;;;;;;5058008;28;20033;-57
2021/08/03 08:20:55;;;;;;;37.75;21.33;;;;;;;;;;5060288;28;20080;-57
2021/08/03 08:23:21;;;;;;;36.72;21.60;;;;;;;;;;5056957;28;20036;-57
2021/08/03 08:25:46;;;;;;;36.75;20.95;;;;;;;;;;5056651;28;20056;-57
2021/08/03 08:28:12;;;;;;;39.72;22.45;;;;;;;;;;5057190;28;22042;-57
2021/08/03 08:30:38;;;;;;;32.67;21.00;;;;;;;;;;5055826;28;20091;-57
2021/08/03 08:33:04;;;;;;;33.05;21.08;;;;;;;;;;5055694;28;20403;-57
2021/08/03 08:35:31;;;;;;;36.35;21.73;;;;;;;;;;5054691;28;20738;-56
2021/08/03 08:37:56;;;;;;;38.75;23.17;;;;;;;;;;5054623;28;20055;-57
2021/08/03 08:40:22;;;;;;;36.92;22.10;;;;;;;;;;5053236;28;20056;-57
2021/08/03 08:42:48;;;;;;;34.20;20.83;;;;;;;;;;5056771;28;20048;-58
2021/08/03 08:45:15;;;;;;;37.00;23.00;;;;;;;;;;5056307;28;20045;-59
2021/08/03 08:47:44;;;;;;;33.05;20.58;;;;;;;;;;5054428;28;20068;-55
2021/08/03 08:50:11;;;;;;;39.63;21.10;;;;;;;;;;5070930;28;20034;-51
2021/08/03 08:52:37;;;;;;;37.60;21.38;;;;;;;;;;5031509;28;20047;-56
2021/08/03 08:55:04;;;;;;;37.40;21.20;;;;;;;;;;5057234;28;20056;-56
2021/08/03 08:57:30;;;;;;;36.30;21.67;;;;;;;;;;5054683;28;20044;-56
2021/08/03 08:59:56;;;;;;;34.47;21.63;;;;;;;;;;5055674;28;20041;-56
2021/08/03 09:02:42;;;;;;;36.30;21.85;;;;;;;;;;5054715;28;20041;-56
2021/08/03 09:05:08;;;;;;;34.17;21.13;;;;;;;;;;5055902;28;20056;-56
2021/08/03 09:07:54;;;;;;;35.25;20.52;;;;;;;;;;5043134;28;20068;-54
2021/08/03 09:10:34;;;;;;;32.65;20.50;;;;;;;;;;5054618;28;20049;-57
2021/08/03 09:13:04;;;;;;;35.97;21.63;;;;;;;;;;5055773;28;20040;-56
2021/08/03 09:15:30;;;;;;;34.10;20.13;;;;;;;;;;5055299;28;20516;-56
2021/08/03 09:26:09;;;;;;;33.75;21.20;;;;;;;;;;4099214;23;20779;-59
2021/08/03 09:28:54;;;;;;;31.00;19.45;;;;;;;;;;5004315;28;20054;-57
2021/08/03 09:31:20;;;;;;;32.13;19.55;;;;;;;;;;5009504;28;21016;-57
2021/08/03 09:33:46;;;;;;;38.03;20.73;;;;;;;;;;5008659;28;20041;-56
2021/08/03 09:36:12;;;;;;;35.03;19.63;;;;;;;;;;5010058;28;20161;-59
2021/08/03 09:38:38;;;;;;;32.67;20.30;;;;;;;;;;5008914;28;20558;-56
2021/08/03 09:41:08;;;;;;;31.17;19.13;;;;;;;;;;5011406;28;20041;-57
2021/08/03 09:43:34;;;;;;;29.00;19.00;;;;;;;;;;5009690;28;20091;-57
2021/08/03 09:46:00;;;;;;;30.77;17.90;;;;;;;;;;5008773;28;20054;-56
2021/08/03 09:48:27;;;;;;;31.48;18.58;;;;;;;;;;5009632;28;20639;-57
2021/08/03 09:51:00;;;;;;;30.25;17.77;;;;;;;;;;4994107;28;20037;-56
2021/08/03 09:53:45;;;;;;;29.77;18.13;;;;;;;;;;5007962;28;20129;-55
2021/08/03 09:56:18;;;;;;;25.83;16.52;;;;;;;;;;5008854;28;20995;-54
2021/08/03 09:58:56;;;;;;;30.48;17.73;;;;;;;;;;5008885;28;20041;-56
2021/08/03 10:01:23;;;;;;;28.20;17.45;;;;;;;;;;5008612;28;20042;-56
2021/08/03 10:03:52;;;;;;;26.42;17.33;;;;;;;;;;5008589;28;20172;-58
2021/08/03 10:06:18;;;;;;;28.00;17.13;;;;;;;;;;5007072;28;20050;-60
2021/08/03 10:08:45;;;;;;;26.45;16.73;;;;;;;;;;5009067;28;20037;-58
2021/08/03 10:11:13;;;;;;;27.80;17.00;;;;;;;;;;5010255;28;21002;-56
2021/08/03 10:13:38;;;;;;;24.90;15.40;;;;;;;;;;5008485;28;20053;-56
2021/08/03 10:16:06;;;;;;;25.75;15.93;;;;;;;;;;5012427;28;20041;-54
2021/08/03 10:18:31;;;;;;;28.38;17.00;;;;;;;;;;5009516;28;20042;-58
2021/08/03 10:20:58;;;;;;;26.10;15.77;;;;;;;;;;5000442;28;20042;-55
2021/08/03 10:23:24;;;;;;;24.02;15.73;;;;;;;;;;5011718;28;20053;-56
2021/08/03 10:25:50;;;;;;;24.73;15.30;;;;;;;;;;5009207;28;20053;-55
2021/08/03 10:28:18;;;;;;;25.15;16.40;;;;;;;;;;5008640;28;20038;-55
2021/08/03 10:30:44;;;;;;;25.42;15.82;;;;;;;;;;5009123;28;20107;-53
2021/08/03 10:33:30;;;;;;;27.75;16.85;;;;;;;;;;5011286;28;20037;-55
2021/08/03 10:35:58;;;;;;;25.30;16.08;;;;;;;;;;5008826;28;20099;-55
2021/08/03 10:38:32;;;;;;;26.20;16.25;;;;;;;;;;5010204;28;20113;-55
2021/08/03 10:40:57;;;;;;;24.98;16.40;;;;;;;;;;5009541;28;20564;-55
2021/08/03 10:43:35;;;;;;;22.55;15.23;;;;;;;;;;5008374;28;20052;-55
2021/08/03 10:46:07;;;;;;;26.38;17.20;;;;;;;;;;5011362;28;20104;-56
2021/08/03 10:48:39;;;;;;;22.55;14.68;;;;;;;;;;5008743;28;20541;-55
2021/08/03 10:51:15;;;;;;;27.27;15.23;;;;;;;;;;5009519;28;20093;-55
2021/08/03 10:53:59;;;;;;;25.02;15.80;;;;;;;;;;5009665;28;20061;-58
2021/08/03 10:56:25;;;;;;;23.05;15.27;;;;;;;;;;4991972;28;20960;-51
2021/08/03 10:59:11;;;;;;;22.85;15.00;;;;;;;;;;4997040;28;20139;-53
2021/08/03 11:01:44;;;;;;;23.75;14.85;;;;;;;;;;5009855;28;20042;-54
2021/08/03 11:04:09;;;;;;;25.98;15.93;;;;;;;;;;5009324;28;20045;-56
2021/08/03 11:06:36;;;;;;;27.35;16.45;;;;;;;;;;5009475;28;20052;-52
2021/08/03 11:09:02;;;;;;;24.65;14.82;;;;;;;;;;5009059;28;20044;-55
2021/08/03 11:11:29;;;;;;;26.20;15.80;;;;;;;;;;5007942;28;20037;-57
2021/08/03 11:14:05;;;;;;;26.52;15.05;;;;;;;;;;5008879;28;20798;-55
2021/08/03 11:16:31;;;;;;;25.33;14.98;;;;;;;;;;5008757;28;20049;-53
2021/08/03 11:19:01;;;;;;;26.85;15.43;;;;;;;;;;5007957;28;20120;-55
2021/08/03 11:21:31;;;;;;;24.42;14.88;;;;;;;;;;5008375;28;20042;-56
2021/08/03 11:24:03;;;;;;;26.98;17.52;;;;;;;;;;5007940;28;20045;-54
2021/08/03 11:26:30;;;;;;;26.08;17.08;;;;;;;;;;5007714;28;20053;-56
2021/08/03 11:28:58;;;;;;;29.45;18.75;;;;;;;;;;5007662;28;20117;-53
2021/08/03 11:31:39;;;;;;;29.35;18.88;;;;;;;;;;5006550;28;20909;-57
2021/08/03 11:34:06;;;;;;;32.42;18.77;;;;;;;;;;5006565;28;20053;-56
2021/08/03 11:36:32;;;;;;;33.72;20.55;;;;;;;;;;5007055;28;20083;-51
2021/08/03 11:38:58;;;;;;;38.22;21.40;;;;;;;;;;5007005;28;20088;-57
2021/08/03 11:41:24;;;;;;;34.38;20.85;;;;;;;;;;5006355;28;20625;-56
2021/08/03 11:43:51;;;;;;;33.58;20.25;;;;;;;;;;4987864;28;20046;-58
2021/08/03 11:46:26;;;;;;;34.03;21.00;;;;;;;;;;4991414;28;20505;-58
2021/08/03 11:49:02;;;;;;;34.53;22.02;;;;;;;;;;5007534;28;20034;-58
2021/08/03 11:51:34;;;;;;;35.60;21.23;;;;;;;;;;5005722;28;20049;-57
2021/08/03 11:54:12;;;;;;;37.72;21.33;;;;;;;;;;5006717;28;20151;-56
2021/08/03 11:56:38;;;;;;;35.03;20.88;;;;;;;;;;5006147;28;20061;-58
2021/08/03 11:59:04;;;;;;;35.47;21.38;;;;;;;;;;5005032;28;20133;-57
2021/08/03 12:01:46;;;;;;;37.10;23.40;;;;;;;;;;5005978;28;20052;-57
2021/08/03 12:04:15;;;;;;;38.65;23.60;;;;;;;;;;5006045;28;20060;-57
2021/08/03 12:06:42;;;;;;;51.15;26.08;;;;;;;;;;4987501;28;20441;-57
2021/08/03 12:09:08;;;;;;;42.05;24.58;;;;;;;;;;5006481;28;20490;-56
2021/08/03 12:11:34;;;;;;;45.88;26.05;;;;;;;;;;5005403;28;20037;-57
2021/08/03 12:14:10;;;;;;;41.10;25.48;;;;;;;;;;5006012;28;20556;-58
2021/08/03 12:16:36;;;;;;;37.35;24.90;;;;;;;;;;5004967;28;20354;-58
2021/08/03 12:19:03;;;;;;;50.47;26.88;;;;;;;;;;5005988;28;20042;-58
2021/08/03 12:21:36;;;;;;;44.40;26.35;;;;;;;;;;5006202;28;20044;-58
2021/08/03 12:24:08;;;;;;;46.17;26.58;;;;;;;;;;5005343;28;20073;-57
2021/08/03 12:26:34;;;;;;;44.65;26.70;;;;;;;;;;5005714;28;21946;-58
2021/08/03 12:29:00;;;;;;;47.67;28.40;;;;;;;;;;5005302;28;20160;-58
2021/08/03 12:31:31;;;;;;;49.33;29.63;;;;;;;;;;5004784;28;20131;-58
2021/08/03 12:34:17;;;;;;;48.42;29.15;;;;;;;;;;5005819;28;21009;-56
2021/08/03 12:36:45;;;;;;;48.47;29.33;;;;;;;;;;5004521;28;20162;-57
2021/08/03 12:39:22;;;;;;;52.60;29.13;;;;;;;;;;5005911;28;20108;-57
2021/08/03 12:42:07;;;;;;;47.95;28.75;;;;;;;;;;5003978;28;20064;-57
2021/08/03 12:44:34;;;;;;;53.35;30.20;;;;;;;;;;5004318;28;20152;-56
2021/08/03 12:47:13;;;;;;;47.60;27.85;;;;;;;;;;5006190;28;20076;-58
2021/08/03 12:49:40;;;;;;;53.67;30.45;;;;;;;;;;5005903;28;20686;-58
2021/08/03 12:52:10;;;;;;;52.10;30.17;;;;;;;;;;5006770;28;20042;-57
2021/08/03 12:54:36;;;;;;;51.20;29.45;;;;;;;;;;5004246;28;20285;-60
2021/08/03 12:57:05;;;;;;;56.42;31.05;;;;;;;;;;5005428;28;20317;-58
2021/08/03 12:59:39;;;;;;;51.15;30.50;;;;;;;;;;5005158;28;20410;-57
2021/08/03 13:02:05;;;;;;;54.72;31.92;;;;;;;;;;5005881;28;20045;-55
2021/08/03 13:04:31;;;;;;;53.80;32.85;;;;;;;;;;5009098;28;20084;-57
2021/08/03 13:07:00;;;;;;;59.33;32.42;;;;;;;;;;5011466;28;20729;-56
2021/08/03 13:09:35;;;;;;;56.92;31.67;;;;;;;;;;5009525;28;20057;-57
2021/08/03 13:12:02;;;;;;;58.05;33.85;;;;;;;;;;5010427;28;20286;-57
2021/08/03 13:14:28;;;;;;;52.53;32.40;;;;;;;;;;5007964;28;20081;-56
2021/08/03 13:16:58;;;;;;;57.30;32.88;;;;;;;;;;5009786;28;20118;-56
2021/08/03 13:19:25;;;;;;;55.53;32.40;;;;;;;;;;5008107;28;20036;-56
2021/08/03 13:21:51;;;;;;;54.25;32.08;;;;;;;;;;5010645;28;20045;-56
2021/08/03 13:24:17;;;;;;;57.50;33.15;;;;;;;;;;5009476;28;20053;-57
2021/08/03 13:26:43;;;;;;;59.50;33.28;;;;;;;;;;5011333;28;20449;-57
2021/08/03 13:29:09;;;;;;;57.88;32.85;;;;;;;;;;5009698;28;20398;-56
2021/08/03 13:31:34;;;;;;;53.58;32.85;;;;;;;;;;5009606;28;20131;-58
2021/08/03 13:34:00;;;;;;;50.85;30.88;;;;;;;;;;5009862;28;20413;-56
2021/08/03 13:36:26;;;;;;;52.25;31.98;;;;;;;;;;5011022;28;20045;-55
2021/08/03 13:38:52;;;;;;;53.15;32.15;;;;;;;;;;5011406;28;20037;-58
2021/08/03 13:41:18;;;;;;;54.63;31.48;;;;;;;;;;5009826;28;20041;-58
2021/08/03 13:43:43;;;;;;;57.35;32.53;;;;;;;;;;5010799;28;20030;-57
2021/08/03 13:46:09;;;;;;;52.92;31.73;;;;;;;;;;5015290;28;20124;-58
2021/08/03 13:48:35;;;;;;;54.30;31.73;;;;;;;;;;5012701;28;20124;-58
2021/08/03 13:51:01;;;;;;;53.17;32.05;;;;;;;;;;5014792;28;20056;-56
2021/08/03 13:53:26;;;;;;;56.40;32.42;;;;;;;;;;5010878;28;20113;-58
2021/08/03 13:55:53;;;;;;;54.83;32.28;;;;;;;;;;5012765;28;20045;-57
2021/08/03 13:58:19;;;;;;;54.72;32.13;;;;;;;;;;5012576;28;20045;-58
2021/08/03 14:00:45;;;;;;;56.13;33.38;;;;;;;;;;5015651;28;20083;-56
2021/08/03 14:03:10;;;;;;;57.08;33.67;;;;;;;;;;5015823;28;20642;-58
2021/08/03 14:05:36;;;;;;;56.58;32.80;;;;;;;;;;5014873;28;20168;-56
2021/08/03 14:08:02;;;;;;;52.63;32.67;;;;;;;;;;5014360;28;20061;-57
2021/08/03 14:10:28;;;;;;;52.80;33.67;;;;;;;;;;5017893;28;20052;-57
2021/08/03 14:12:54;;;;;;;53.30;33.13;;;;;;;;;;5014758;28;20148;-57
2021/08/03 14:15:20;;;;;;;53.53;33.60;;;;;;;;;;5014670;28;20034;-58
2021/08/03 14:17:45;;;;;;;55.92;34.08;;;;;;;;;;5012942;28;20038;-56
2021/08/03 14:20:11;;;;;;;56.75;34.00;;;;;;;;;;5007765;28;20072;-54
2021/08/03 14:22:37;;;;;;;58.75;32.80;;;;;;;;;;5007306;28;20112;-56
2021/08/03 14:25:03;;;;;;;58.67;33.95;;;;;;;;;;5007822;28;20157;-57
2021/08/03 14:27:29;;;;;;;58.15;34.00;;;;;;;;;;5007342;28;20077;-56
2021/08/03 14:29:55;;;;;;;55.63;33.28;;;;;;;;;;5008650;28;21049;-57
2021/08/03 14:32:21;;;;;;;57.90;33.97;;;;;;;;;;5007534;28;20076;-56
2021/08/03 14:34:47;;;;;;;54.45;32.90;;;;;;;;;;5006622;28;20041;-58
2021/08/03 14:37:12;;;;;;;56.10;33.40;;;;;;;;;;4996903;28;20038;-58